Time;durP1;ratioP1;P1;durP2;ratioP2;P2;SDS_P1;SDS_P2;PMS_P1;PMS_P2;Temp;Humidity;BMP_temperature;BMP_pressure;BME280_temperature;BME280_humidity;BME280_pressure;Samples;Min_cycle;Max_cycle;Signal;HPM_P1;HPM_P2
2021/06/21 00:00:08;;;;;;;7.90;7.10;;;;;;;28.50;46.42;100106.19;700920;28;38325;-63
2021/06/21 00:00:33;;;;;;;9.38;7.47;;;;;;;28.51;46.35;100109.78;700112;28;61563;-63
2021/06/21 00:00:55;;;;;;;10.95;7.53;;;;;;;28.49;46.36;100106.50;702206;28;22409;-63
2021/06/21 00:01:17;;;;;;;8.05;7.15;;;;;;;28.48;47.04;100111.25;703930;28;1359;-63
2021/06/21 00:01:39;;;;;;;8.80;7.40;;;;;;;28.47;46.59;100115.16;703126;28;1032;-63
2021/06/21 00:02:00;;;;;;;7.70;6.93;;;;;;;28.47;46.92;100112.38;703034;28;21148;-63
2021/06/21 00:02:21;;;;;;;9.07;7.38;;;;;;;28.45;46.69;100106.31;703716;28;1526;-63
2021/06/21 00:02:44;;;;;;;9.27;7.20;;;;;;;28.43;46.77;100111.34;703571;28;913;-63
2021/06/21 00:03:12;;;;;;;9.52;7.18;;;;;;;28.41;46.76;100114.44;701260;28;60982;-63
2021/06/21 00:03:33;;;;;;;8.18;6.88;;;;;;;28.39;47.22;100108.38;702743;28;21462;-63
2021/06/21 00:03:54;;;;;;;9.50;7.35;;;;;;;28.41;46.94;100108.06;702934;28;20787;-63
2021/06/21 00:04:16;;;;;;;8.38;7.10;;;;;;;28.40;47.27;100112.81;702615;28;18577;-63
2021/06/21 00:04:37;;;;;;;7.82;7.03;;;;;;;28.41;46.64;100110.84;700928;28;46144;-63
2021/06/21 00:04:58;;;;;;;8.35;7.53;;;;;;;28.40;47.18;100112.81;703052;28;23500;-63
2021/06/21 00:05:19;;;;;;;8.30;6.95;;;;;;;28.40;46.77;100115.59;701957;28;22193;-63
2021/06/21 00:05:40;;;;;;;7.57;6.88;;;;;;;28.39;47.49;100108.38;702410;28;22409;-63
2021/06/21 00:06:02;;;;;;;8.75;7.40;;;;;;;28.39;47.26;100111.16;702490;28;23455;-63
2021/06/21 00:06:24;;;;;;;11.88;7.55;;;;;;;28.40;47.14;100117.53;703597;28;941;-63
2021/06/21 00:06:45;;;;;;;9.90;7.63;;;;;;;28.38;47.26;100115.06;701992;28;46402;-63
2021/06/21 00:07:06;;;;;;;8.48;7.35;;;;;;;28.37;46.92;100113.44;702908;28;23404;-63
2021/06/21 00:07:27;;;;;;;8.23;7.20;;;;;;;28.38;46.95;100105.94;702304;28;21528;-63
2021/06/21 00:07:49;;;;;;;8.52;7.22;;;;;;;28.38;47.24;100117.84;702875;28;23424;-63
2021/06/21 00:08:11;;;;;;;9.18;7.40;;;;;;;28.37;47.01;100112.59;701952;28;45240;-63
2021/06/21 00:08:34;;;;;;;11.50;7.30;;;;;;;28.34;47.51;100108.50;703679;28;928;-63
2021/06/21 00:08:55;;;;;;;9.25;7.25;;;;;;;28.36;47.03;100110.97;703390;28;917;-63
2021/06/21 00:09:17;;;;;;;9.50;7.25;;;;;;;28.36;47.02;100108.19;701024;28;22494;-63
2021/06/21 00:09:40;;;;;;;9.85;7.35;;;;;;;28.35;47.61;100112.91;701686;28;46304;-63
2021/06/21 00:10:03;;;;;;;7.60;6.95;;;;;;;28.33;47.11;100109.63;699875;28;69526;-63
2021/06/21 00:10:24;;;;;;;11.52;7.03;;;;;;;28.31;47.82;100108.31;700594;28;69424;-63
2021/06/21 00:10:53;;;;;;;7.25;6.53;;;;;;;28.33;47.14;100117.16;700943;28;59361;-63
2021/06/21 00:11:14;;;;;;;7.80;6.90;;;;;;;28.31;47.66;100106.34;701806;28;44461;-63
2021/06/21 00:11:35;;;;;;;8.70;7.07;;;;;;;28.30;47.70;100104.69;701912;28;15899;-63
2021/06/21 00:11:56;;;;;;;9.73;7.35;;;;;;;28.30;47.68;100101.94;702724;28;21513;-63
2021/06/21 00:12:17;;;;;;;11.10;7.40;;;;;;;28.29;47.58;100103.09;702803;28;22393;-63
2021/06/21 00:12:41;;;;;;;8.90;7.32;;;;;;;28.29;47.33;100100.31;703387;28;897;-63
2021/06/21 00:13:03;;;;;;;9.70;7.18;;;;;;;28.29;47.35;100105.84;702283;28;37871;-63
2021/06/21 00:13:24;;;;;;;11.95;7.55;;;;;;;28.29;47.91;100103.09;703606;28;899;-63
2021/06/21 00:13:45;;;;;;;9.23;7.45;;;;;;;28.29;47.85;100105.84;703211;28;11156;-63
2021/06/21 00:14:07;;;;;;;9.60;7.03;;;;;;;28.29;47.56;100099.47;702264;28;23536;-63
2021/06/21 00:14:29;;;;;;;10.75;7.50;;;;;;;28.30;47.54;100103.88;701816;28;45258;-63
2021/06/21 00:14:51;;;;;;;9.48;7.88;;;;;;;28.30;47.46;100101.13;703522;28;897;-63
2021/06/21 00:15:14;;;;;;;8.80;7.82;;;;;;;28.30;47.55;100098.34;700697;28;46381;-63
2021/06/21 00:15:35;;;;;;;8.70;7.72;;;;;;;28.28;47.59;100098.66;697697;28;65892;-63
2021/06/21 00:15:57;;;;;;;9.40;7.82;;;;;;;28.27;47.99;100102.56;699129;28;21083;-63
2021/06/21 00:16:18;;;;;;;10.10;7.75;;;;;;;28.27;48.12;100091.44;699433;28;34341;-63
2021/06/21 00:16:39;;;;;;;8.43;7.63;;;;;;;28.26;47.79;100103.69;700061;28;18710;-63
2021/06/21 00:17:00;;;;;;;8.68;7.68;;;;;;;28.26;47.72;100103.69;699681;28;23413;-63
2021/06/21 00:17:21;;;;;;;9.43;7.90;;;;;;;28.26;48.24;100094.53;700308;28;14724;-63
2021/06/21 00:17:42;;;;;;;9.82;7.85;;;;;;;28.27;47.56;100094.22;699062;28;25621;-63
2021/06/21 00:18:05;;;;;;;11.05;7.80;;;;;;;28.27;47.81;100088.66;699730;28;22355;-63
2021/06/21 00:18:26;;;;;;;11.40;7.83;;;;;;;28.29;47.91;100096.69;698305;28;69336;-63
2021/06/21 00:18:47;;;;;;;10.15;7.95;;;;;;;28.26;48.40;100089.81;699346;28;44408;-63
2021/06/21 00:19:08;;;;;;;9.07;8.02;;;;;;;28.25;48.25;100088.16;699416;28;16208;-63
2021/06/21 00:19:30;;;;;;;8.77;7.88;;;;;;;28.26;48.09;100092.59;700655;28;897;-63
2021/06/21 00:19:52;;;;;;;8.00;7.30;;;;;;;28.25;48.32;100088.16;703252;28;17673;-63
2021/06/21 00:20:15;;;;;;;9.50;8.50;;;;;;;28.25;48.00;100090.94;702097;28;44117;-63
2021/06/21 00:20:36;;;;;;;10.13;8.75;;;;;;;28.23;48.02;100084.88;700411;28;65233;-63
2021/06/21 00:20:58;;;;;;;11.00;8.18;;;;;;;28.24;48.65;100092.06;703064;28;1767;-63
2021/06/21 00:21:19;;;;;;;11.60;8.00;;;;;;;28.23;48.25;100087.66;703609;28;1317;-63
2021/06/21 00:21:41;;;;;;;10.18;8.23;;;;;;;28.23;48.34;100085.69;699330;28;23504;-63
2021/06/21 00:22:14;;;;;;;9.27;8.15;;;;;;;28.25;48.24;100088.16;698361;28;60933;-63
2021/06/21 00:22:35;;;;;;;9.48;8.30;;;;;;;28.26;48.15;100080.66;696960;28;92377;-63
2021/06/21 00:22:57;;;;;;;9.82;8.45;;;;;;;28.26;48.41;100084.25;700519;28;3096;-62
2021/06/21 00:23:18;;;;;;;9.45;8.40;;;;;;;28.27;48.69;100082.31;698307;28;45287;-63
2021/06/21 00:23:40;;;;;;;9.45;8.45;;;;;;;28.26;48.59;100078.72;702374;28;1681;-63
2021/06/21 00:24:01;;;;;;;10.45;8.50;;;;;;;28.27;48.62;100080.34;703187;28;2099;-62
2021/06/21 00:24:22;;;;;;;10.73;8.40;;;;;;;28.28;48.67;100081.19;702509;28;19196;-63
2021/06/21 00:24:44;;;;;;;10.38;8.55;;;;;;;28.26;48.39;100072.31;702901;28;21711;-63
2021/06/21 00:25:06;;;;;;;9.38;8.30;;;;;;;28.24;48.84;100078.19;702907;28;16438;-63
2021/06/21 00:25:27;;;;;;;13.68;8.50;;;;;;;28.25;48.50;100070.69;702124;28;44744;-63
2021/06/21 00:25:58;;;;;;;10.30;7.95;;;;;;;28.24;48.98;100075.41;700201;28;97041;-63
2021/06/21 00:26:21;;;;;;;10.32;8.85;;;;;;;28.23;48.87;100074.59;702780;28;23535;-63
2021/06/21 00:26:42;;;;;;;9.77;8.73;;;;;;;28.22;48.51;100072.13;700639;28;44410;-63
2021/06/21 00:27:04;;;;;;;12.10;8.52;;;;;;;28.21;48.55;100071.31;702118;28;1282;-63
2021/06/21 00:27:27;;;;;;;11.10;8.43;;;;;;;28.21;48.65;100071.31;702931;27;1807;-62
2021/06/21 00:27:50;;;;;;;11.27;8.40;;;;;;;28.21;48.60;100071.31;701684;28;972;-63
2021/06/21 00:28:11;;;;;;;10.13;8.25;;;;;;;28.20;48.51;100064.13;699522;28;47449;-63
2021/06/21 00:28:32;;;;;;;11.93;8.38;;;;;;;28.19;48.66;100062.47;699772;28;45275;-63
2021/06/21 00:28:54;;;;;;;12.55;8.40;;;;;;;28.20;49.06;100058.56;701577;28;865;-62
2021/06/21 00:29:15;;;;;;;10.80;8.20;;;;;;;28.18;48.83;100057.22;700695;28;18734;-62
2021/06/21 00:29:37;;;;;;;9.48;8.00;;;;;;;28.18;48.99;100062.78;699991;28;46474;-62
2021/06/21 00:30:00;;;;;;;9.73;8.25;;;;;;;28.18;48.72;100054.44;701837;28;44384;-63
2021/06/21 00:30:22;;;;;;;9.02;8.13;;;;;;;28.16;49.31;100054.75;700315;28;45344;-63
2021/06/21 00:30:44;;;;;;;10.32;8.45;;;;;;;28.17;49.25;100053.63;701520;28;46509;-62
2021/06/21 00:31:05;;;;;;;12.32;8.65;;;;;;;28.17;48.86;100047.28;702093;28;45286;-62
2021/06/21 00:31:27;;;;;;;10.40;8.68;;;;;;;28.17;48.77;100050.84;702697;28;23486;-63
2021/06/21 00:31:48;;;;;;;11.00;8.68;;;;;;;28.18;48.99;100046.97;701986;28;44375;-63
2021/06/21 00:32:09;;;;;;;9.95;8.25;;;;;;;28.18;49.46;100052.50;703207;28;11677;-62
2021/06/21 00:32:30;;;;;;;11.02;8.70;;;;;;;28.17;49.50;100047.28;702140;28;23420;-63
2021/06/21 00:32:51;;;;;;;11.55;8.63;;;;;;;28.18;49.18;100046.13;702878;28;21706;-63
2021/06/21 00:33:14;;;;;;;11.80;8.80;;;;;;;28.17;48.86;100045.31;702787;28;23484;-63
2021/06/21 00:33:35;;;;;;;13.80;8.57;;;;;;;28.16;48.92;100043.66;698258;28;46447;-63
2021/06/21 00:33:56;;;;;;;13.88;8.20;;;;;;;28.16;48.93;100040.88;698893;28;22414;-63
2021/06/21 00:34:17;;;;;;;12.20;8.15;;;;;;;28.16;48.85;100043.66;698453;28;45308;-63
2021/06/21 00:34:38;;;;;;;11.52;8.57;;;;;;;28.16;48.72;100040.88;699710;28;21505;-63
2021/06/21 00:35:02;;;;;;;11.75;8.75;;;;;;;28.15;48.87;100042.03;700369;28;1552;-63
2021/06/21 00:35:23;;;;;;;11.20;8.80;;;;;;;28.15;49.32;100036.47;698932;28;69543;-63
2021/06/21 00:35:45;;;;;;;11.15;8.77;;;;;;;28.16;48.84;100040.88;703012;28;2050;-63
2021/06/21 00:36:06;;;;;;;9.85;8.50;;;;;;;28.15;49.40;100038.41;702740;28;22277;-63
2021/06/21 00:36:28;;;;;;;11.45;8.45;;;;;;;28.14;49.41;100040.38;701581;28;15504;-63
2021/06/21 00:36:49;;;;;;;9.82;8.30;;;;;;;28.13;49.32;100037.91;700795;28;41115;-63
2021/06/21 00:37:10;;;;;;;10.32;8.50;;;;;;;28.13;49.40;100040.69;701385;28;22433;-63
2021/06/21 00:37:31;;;;;;;11.73;8.70;;;;;;;28.10;49.38;100044.91;700972;28;46076;-63
2021/06/21 00:37:54;;;;;;;13.27;9.00;;;;;;;28.11;49.84;100035.44;703051;28;12016;-63
2021/06/21 00:38:15;;;;;;;17.67;9.07;;;;;;;28.10;49.78;100035.75;702149;28;41055;-63
2021/06/21 00:38:36;;;;;;;11.70;8.80;;;;;;;28.08;49.62;100038.84;703643;28;5148;-63
2021/06/21 00:38:57;;;;;;;12.43;8.90;;;;;;;28.07;49.77;100033.59;702559;28;21768;-63
2021/06/21 00:39:18;;;;;;;12.10;9.38;;;;;;;28.06;50.04;100035.56;702458;28;4010;-63
2021/06/21 00:39:40;;;;;;;10.90;9.43;;;;;;;28.06;50.01;100041.13;703222;28;11390;-63
2021/06/21 00:40:02;;;;;;;11.05;8.90;;;;;;;28.05;50.08;100036.69;701769;28;46355;-62
2021/06/21 00:40:24;;;;;;;9.90;8.20;;;;;;;28.04;50.02;100029.50;703193;28;1735;-63
2021/06/21 00:40:45;;;;;;;9.52;8.30;;;;;;;28.04;49.57;100035.03;702477;28;42334;-63
2021/06/21 00:41:07;;;;;;;11.07;9.00;;;;;;;28.03;50.21;100034.22;697076;28;12385;-63
2021/06/21 00:41:28;;;;;;;13.75;8.93;;;;;;;28.02;49.65;100040.09;697374;28;45356;-63
2021/06/21 00:41:50;;;;;;;11.63;9.00;;;;;;;28.00;49.82;100040.41;698464;28;20750;-63
2021/06/21 00:42:11;;;;;;;12.38;9.27;;;;;;;27.97;50.23;100038.25;698142;28;21534;-63
2021/06/21 00:42:33;;;;;;;11.63;9.27;;;;;;;27.96;50.35;100046.88;693144;28;22421;-63
2021/06/21 00:42:55;;;;;;;10.15;8.93;;;;;;;27.94;49.98;100035.25;694863;28;46374;-63
2021/06/21 00:43:16;;;;;;;10.73;9.35;;;;;;;27.93;50.12;100039.16;699033;28;44582;-63
2021/06/21 00:43:37;;;;;;;13.15;9.52;;;;;;;27.94;50.48;100040.81;699924;28;21494;-63
2021/06/21 00:43:58;;;;;;;11.48;8.82;;;;;;;27.92;49.92;100041.13;699852;28;21700;-63
2021/06/21 00:44:19;;;;;;;12.43;8.98;;;;;;;27.92;50.59;100043.06;700324;28;1410;-63
2021/06/21 00:44:41;;;;;;;13.38;9.45;;;;;;;27.93;50.76;100044.69;700745;28;23491;-63
2021/06/21 00:45:05;;;;;;;13.07;9.25;;;;;;;27.90;50.29;100037.00;699739;28;69498;-63
2021/06/21 00:45:26;;;;;;;11.50;9.27;;;;;;;27.89;50.79;100040.91;698422;28;90222;-62
2021/06/21 00:45:49;;;;;;;10.70;9.27;;;;;;;27.89;50.77;100046.47;701868;28;22363;-63
2021/06/21 00:46:11;;;;;;;10.55;9.23;;;;;;;27.87;50.61;100041.22;701662;28;876;-63
2021/06/21 00:46:37;;;;;;;11.23;8.98;;;;;;;27.85;50.83;100038.75;699622;28;61692;-63
2021/06/21 00:46:58;;;;;;;12.52;9.13;;;;;;;27.84;51.01;100045.44;700863;28;20703;-63
2021/06/21 00:47:20;;;;;;;12.18;9.30;;;;;;;27.81;51.08;100046.06;700112;28;23434;-63
2021/06/21 00:47:42;;;;;;;10.30;8.63;;;;;;;27.81;51.14;100043.28;701408;28;44413;-63
2021/06/21 00:48:04;;;;;;;10.73;9.10;;;;;;;27.80;51.23;100044.41;698848;28;23300;-63
2021/06/21 00:48:25;;;;;;;10.38;9.32;;;;;;;27.78;51.08;100040.31;699031;28;33307;-63
2021/06/21 00:48:47;;;;;;;10.57;9.50;;;;;;;27.76;51.34;100046.16;699137;28;20027;-64
2021/06/21 00:49:08;;;;;;;12.40;9.27;;;;;;;27.77;51.29;100045.03;698670;28;32046;-63
2021/06/21 00:49:29;;;;;;;10.93;9.10;;;;;;;27.79;51.17;100036.38;698022;28;42201;-63
2021/06/21 00:49:50;;;;;;;10.07;8.98;;;;;;;27.76;51.17;100040.63;700176;28;1266;-63
2021/06/21 00:50:12;;;;;;;11.02;9.10;;;;;;;27.77;50.84;100033.91;702572;28;21188;-63
2021/06/21 00:50:36;;;;;;;13.02;9.02;;;;;;;27.76;50.81;100034.22;702390;28;15042;-63
2021/06/21 00:50:57;;;;;;;13.35;9.70;;;;;;;27.76;51.30;100035.06;701068;28;46434;-63
2021/06/21 00:51:18;;;;;;;10.60;9.50;;;;;;;27.75;51.42;100035.38;699931;28;5161;-63
2021/06/21 00:51:39;;;;;;;11.15;9.73;;;;;;;27.74;51.05;100030.97;699175;28;23502;-63
2021/06/21 00:52:00;;;;;;;11.30;9.50;;;;;;;27.73;51.21;100032.91;697080;28;46193;-63
2021/06/21 00:52:22;;;;;;;10.30;9.27;;;;;;;27.73;51.38;100027.38;699195;28;23518;-63
2021/06/21 00:52:44;;;;;;;10.68;9.45;;;;;;;27.72;51.35;100031.25;698639;28;41423;-63
2021/06/21 00:53:05;;;;;;;12.55;9.38;;;;;;;27.71;51.37;100035.16;699964;28;20277;-63
2021/06/21 00:53:26;;;;;;;14.70;9.75;;;;;;;27.68;51.15;100033.00;701832;28;16501;-63
2021/06/21 00:53:49;;;;;;;13.25;9.45;;;;;;;27.67;51.26;100026.66;703352;28;882;-63
2021/06/21 00:54:10;;;;;;;10.85;8.95;;;;;;;27.66;51.37;100036.09;700183;28;69395;-63
2021/06/21 00:54:31;;;;;;;13.00;9.07;;;;;;;27.65;51.17;100030.88;701298;28;23433;-63
2021/06/21 00:54:59;;;;;;;12.80;9.10;;;;;;;27.65;51.20;100028.91;702227;28;21221;-63
2021/06/21 00:55:22;;;;;;;12.15;9.30;;;;;;;27.66;51.17;100038.84;698485;28;113663;-63
2021/06/21 00:55:44;;;;;;;11.95;9.35;;;;;;;27.65;51.57;100036.44;698049;28;68264;-63
2021/06/21 00:56:05;;;;;;;10.77;9.32;;;;;;;27.63;51.52;100027.56;697848;28;69522;-63
2021/06/21 00:56:27;;;;;;;11.13;8.98;;;;;;;27.64;51.28;100029.22;699604;28;22527;-63
2021/06/21 00:56:49;;;;;;;12.23;9.43;;;;;;;27.62;51.48;100029.53;698450;28;46404;-63
2021/06/21 00:57:11;;;;;;;11.63;9.35;;;;;;;27.62;51.55;100037.84;697614;28;45266;-62
2021/06/21 00:57:35;;;;;;;11.23;8.80;;;;;;;27.61;51.60;100038.97;699206;28;46290;-63
2021/06/21 00:57:57;;;;;;;13.07;9.52;;;;;;;27.60;51.36;100039.28;700029;28;67572;-63
2021/06/21 00:58:19;;;;;;;10.85;9.13;;;;;;;27.59;51.87;100041.25;702071;28;31599;-63
2021/06/21 00:58:40;;;;;;;11.95;9.43;;;;;;;27.60;51.55;100036.50;702250;28;994;-63
2021/06/21 00:59:03;;;;;;;10.52;8.85;;;;;;;27.59;52.06;100035.69;701988;28;24377;-63
2021/06/21 00:59:24;;;;;;;9.63;8.63;;;;;;;27.58;51.52;100045.13;700622;28;39298;-63
2021/06/21 00:59:45;;;;;;;12.18;8.88;;;;;;;27.59;51.52;100043.22;702599;28;16245;-63
2021/06/21 01:00:11;;;;;;;11.30;9.15;;;;;;;27.58;51.56;100041.56;703232;28;908;-63
2021/06/21 01:00:42;;;;;;;11.25;9.05;;;;;;;27.56;51.73;100047.41;699039;28;96618;-63
2021/06/21 01:01:04;;;;;;;12.90;9.75;;;;;;;27.55;52.03;100042.16;703160;28;1358;-63
2021/06/21 01:01:25;;;;;;;15.37;9.77;;;;;;;27.55;51.64;100042.16;701055;28;46423;-63
2021/06/21 01:01:48;;;;;;;13.02;9.15;;;;;;;27.53;51.99;100045.25;699568;28;979;-63
2021/06/21 01:02:11;;;;;;;13.80;9.15;;;;;;;27.51;51.98;100040.00;698079;28;46285;-63
2021/06/21 01:02:32;;;;;;;11.68;9.32;;;;;;;27.50;51.77;100040.31;695392;28;46229;-63
2021/06/21 01:02:53;;;;;;;10.50;9.18;;;;;;;27.48;52.31;100046.16;693770;28;19722;-63
2021/06/21 01:03:16;;;;;;;11.52;9.45;;;;;;;27.47;52.22;100046.47;694806;28;1451;-63
2021/06/21 01:03:38;;;;;;;12.90;9.27;;;;;;;27.46;52.34;100042.88;693098;28;69258;-63
2021/06/21 01:04:00;;;;;;;12.30;9.15;;;;;;;27.48;51.83;100050.91;697596;28;1885;-63
2021/06/21 01:04:21;;;;;;;10.20;9.02;;;;;;;27.46;52.19;100042.03;698174;28;6232;-63
2021/06/21 01:04:42;;;;;;;11.07;9.20;;;;;;;27.47;52.32;100049.25;700146;28;23816;-63
2021/06/21 01:05:05;;;;;;;12.13;9.50;;;;;;;27.46;52.40;100047.59;702942;28;1159;-63
2021/06/21 01:05:30;;;;;;;10.98;9.23;;;;;;;27.45;52.16;100052.31;700737;28;65458;-62
2021/06/21 01:05:52;;;;;;;11.27;8.95;;;;;;;27.44;52.65;100047.09;699243;28;111808;-63
2021/06/21 01:06:13;;;;;;;11.15;8.60;;;;;;;27.45;52.59;100048.75;702159;28;5615;-63
2021/06/21 01:06:34;;;;;;;10.40;8.25;;;;;;;27.45;52.58;100051.50;702217;28;21655;-63
2021/06/21 01:06:55;;;;;;;10.90;9.00;;;;;;;27.44;52.69;100047.91;702821;28;15348;-63
2021/06/21 01:07:17;;;;;;;11.95;9.25;;;;;;;27.43;52.33;100049.06;702022;28;22330;-63
2021/06/21 01:07:39;;;;;;;11.73;9.20;;;;;;;27.45;52.48;100048.75;700621;28;69410;-63
2021/06/21 01:08:01;;;;;;;11.95;9.43;;;;;;;27.45;52.51;100046.78;702923;28;881;-63
2021/06/21 01:08:23;;;;;;;11.52;9.20;;;;;;;27.45;52.36;100046.78;701962;28;34899;-63
2021/06/21 01:08:45;;;;;;;10.85;9.40;;;;;;;27.45;52.16;100048.75;701591;28;42800;-63
2021/06/21 01:09:06;;;;;;;9.90;8.90;;;;;;;27.45;52.52;100043.19;701175;28;40580;-63
2021/06/21 01:09:27;;;;;;;10.25;9.15;;;;;;;27.43;52.54;100046.28;700836;28;29511;-62
2021/06/21 01:09:50;;;;;;;12.25;9.10;;;;;;;27.41;52.58;100045.75;702169;28;22308;-62
2021/06/21 01:10:13;;;;;;;12.07;9.38;;;;;;;27.39;52.28;100049.97;701366;28;46403;-63
2021/06/21 01:10:35;;;;;;;13.35;9.20;;;;;;;27.39;52.54;100047.19;699741;28;92276;-63
2021/06/21 01:10:57;;;;;;;12.75;9.52;;;;;;;27.38;52.25;100046.34;701267;28;47165;-63
2021/06/21 01:11:18;;;;;;;9.82;8.88;;;;;;;27.37;52.42;100052.19;702182;28;24324;-63
2021/06/21 01:11:53;;;;;;;10.55;9.02;;;;;;;27.37;52.65;100047.50;702471;28;23404;-63
2021/06/21 01:12:24;;;;;;;12.30;9.27;;;;;;;27.36;52.36;100050.59;697792;28;138076;-63
2021/06/21 01:12:57;;;;;;;12.35;9.30;;;;;;;27.35;52.73;100052.50;697463;28;137628;-63
2021/06/21 01:13:30;;;;;;;11.55;9.32;;;;;;;27.35;52.36;100052.50;700867;28;62536;-63
2021/06/21 01:13:58;;;;;;;13.23;9.63;;;;;;;27.30;52.37;100050.66;697404;28;137579;-62
2021/06/21 01:14:25;;;;;;;11.90;9.10;;;;;;;27.30;52.61;100052.59;700671;28;60509;-63
2021/06/21 01:14:50;;;;;;;11.57;9.15;;;;;;;27.28;52.51;100052.06;698860;28;115905;-63
2021/06/21 01:15:16;;;;;;;12.48;9.50;;;;;;;27.27;52.96;100059.59;697816;28;61432;-63
2021/06/21 01:15:40;;;;;;;11.15;8.95;;;;;;;27.27;52.73;100058.75;696029;28;91274;-63
2021/06/21 01:16:11;;;;;;;10.38;9.30;;;;;;;27.26;52.87;100057.13;695852;28;115020;-62
2021/06/21 01:16:39;;;;;;;10.50;9.40;;;;;;;27.26;52.64;100057.13;697972;28;61301;-63
2021/06/21 01:17:04;;;;;;;10.57;9.48;;;;;;;27.25;52.81;100061.81;694478;28;136348;-63
2021/06/21 01:17:33;;;;;;;11.70;9.15;;;;;;;27.25;52.82;100058.22;698130;28;108621;-63
2021/06/21 01:17:58;;;;;;;11.50;9.27;;;;;;;27.24;52.87;100060.19;698384;28;129139;-63
2021/06/21 01:18:23;;;;;;;14.45;9.18;;;;;;;27.25;52.64;100056.28;695487;28;115163;-63
2021/06/21 01:18:53;;;;;;;10.65;8.70;;;;;;;27.26;52.91;100059.88;695667;28;84572;-63
2021/06/21 01:19:20;;;;;;;10.02;9.07;;;;;;;27.25;52.68;100067.38;695295;28;132319;-63
2021/06/21 01:20:04;;;;;;;13.65;9.30;;;;;;;27.25;52.83;100063.78;697053;28;80661;-63
2021/06/21 01:21:02;;;;;;;14.52;9.80;;;;;;;27.25;52.31;100059.03;697557;28;155357;-63
2021/06/21 01:21:56;;;;;;;14.85;9.38;;;;;;;27.24;52.58;100054.66;697617;28;137399;-63
2021/06/21 01:22:55;;;;;;;11.25;8.70;;;;;;;27.22;52.38;100050.53;696413;28;158819;-63
2021/06/21 01:23:36;;;;;;;9.60;8.60;;;;;;;27.18;52.88;100044.78;696669;28;148341;-63
2021/06/21 01:24:31;;;;;;;11.83;8.83;;;;;;;27.17;52.85;100048.66;697742;28;138366;-63
2021/06/21 01:25:06;;;;;;;13.88;9.30;;;;;;;27.17;52.32;100048.66;676088;29;61626;-63
2021/06/21 01:25:30;;;;;;;12.68;9.18;;;;;;;27.18;52.70;100052.25;673494;29;136807;-63
2021/06/21 01:25:53;;;;;;;11.68;8.93;;;;;;;27.17;52.47;100050.63;690753;28;86731;-63
2021/06/21 01:26:18;;;;;;;10.38;8.88;;;;;;;27.17;52.39;100045.09;699905;28;68300;-63
2021/06/21 01:26:44;;;;;;;10.10;8.90;;;;;;;27.15;52.65;100048.16;698799;28;116836;-63
2021/06/21 01:27:11;;;;;;;12.75;8.85;;;;;;;27.15;52.76;100045.41;698988;28;107530;-63
2021/06/21 01:27:41;;;;;;;12.13;9.05;;;;;;;27.13;52.56;100051.25;698003;28;138116;-63
2021/06/21 01:28:04;;;;;;;11.00;8.68;;;;;;;27.12;53.02;100048.78;698100;28;137782;-63
2021/06/21 01:28:37;;;;;;;12.45;8.77;;;;;;;27.11;52.67;100049.88;696324;28;90707;-63
2021/06/21 01:29:10;;;;;;;13.82;8.75;;;;;;;27.08;52.66;100051.31;694458;28;137526;-63
2021/06/21 01:29:48;;;;;;;13.05;8.68;;;;;;;27.06;52.51;100050.81;694541;28;137480;-63
2021/06/21 01:30:11;;;;;;;11.57;9.23;;;;;;;27.08;52.46;100048.53;695278;28;138397;-62
2021/06/21 01:30:59;;;;;;;13.18;9.30;;;;;;;27.09;52.57;100050.19;701006;28;58353;-62
2021/06/21 01:31:22;;;;;;;11.20;8.80;;;;;;;27.06;52.79;100050.00;698069;28;138517;-63
2021/06/21 01:31:48;;;;;;;11.82;8.77;;;;;;;27.07;52.61;100051.63;702474;28;16214;-63
2021/06/21 01:32:12;;;;;;;10.98;8.57;;;;;;;27.06;52.98;100053.56;698771;28;115910;-63
2021/06/21 01:32:44;;;;;;;12.35;8.70;;;;;;;27.06;53.03;100050.81;700040;28;86688;-63
2021/06/21 01:33:06;;;;;;;10.27;8.75;;;;;;;27.06;52.54;100047.22;699430;28;60214;-63
2021/06/21 01:33:28;;;;;;;10.98;8.73;;;;;;;27.04;52.67;100046.69;700047;28;46337;-63
2021/06/21 01:33:50;;;;;;;11.40;8.70;;;;;;;27.04;53.11;100043.91;700732;28;46479;-63
2021/06/21 01:34:12;;;;;;;12.68;8.98;;;;;;;27.03;53.15;100054.19;702923;28;885;-62
2021/06/21 01:34:33;;;;;;;12.65;9.10;;;;;;;27.01;52.98;100050.06;702160;28;22414;-63
2021/06/21 01:34:57;;;;;;;11.27;8.73;;;;;;;27.00;52.56;100049.25;700562;28;38030;-62
2021/06/21 01:35:21;;;;;;;9.65;8.65;;;;;;;27.00;53.19;100051.19;700995;28;59537;-63
2021/06/21 01:35:52;;;;;;;10.20;8.68;;;;;;;26.97;52.73;100045.16;701078;28;59563;-63
2021/06/21 01:36:16;;;;;;;10.90;8.70;;;;;;;26.97;53.14;100045.16;698180;28;135900;-63
2021/06/21 01:36:39;;;;;;;10.43;8.80;;;;;;;26.95;52.98;100047.38;701077;28;38750;-63
2021/06/21 01:37:02;;;;;;;9.48;8.48;;;;;;;26.95;53.19;100044.63;701891;28;22475;-63
2021/06/21 01:37:24;;;;;;;9.18;8.30;;;;;;;26.95;53.42;100049.34;694387;28;69090;-63
2021/06/21 01:37:46;;;;;;;9.98;8.90;;;;;;;26.95;52.66;100052.94;695571;28;47766;-63
2021/06/21 01:38:11;;;;;;;10.98;8.98;;;;;;;26.94;53.39;100042.16;695804;28;36400;-63
2021/06/21 01:38:36;;;;;;;9.32;8.23;;;;;;;26.95;53.06;100049.34;697350;28;37870;-63
2021/06/21 01:38:59;;;;;;;9.75;8.68;;;;;;;26.94;52.90;100045.75;695577;28;112167;-63
2021/06/21 01:39:20;;;;;;;9.35;8.43;;;;;;;26.94;53.17;100045.75;700310;28;34803;-62
2021/06/21 01:39:43;;;;;;;11.38;8.50;;;;;;;26.95;53.33;100052.13;701714;28;4331;-62
2021/06/21 01:40:06;;;;;;;12.18;8.55;;;;;;;26.94;53.48;100044.91;702838;28;1205;-63
2021/06/21 01:40:30;;;;;;;15.93;9.13;;;;;;;26.94;52.93;100047.69;702765;28;1747;-62
2021/06/21 01:40:53;;;;;;;9.85;8.45;;;;;;;26.94;53.28;100054.06;699853;28;89817;-63
2021/06/21 01:41:16;;;;;;;9.48;8.57;;;;;;;26.94;52.97;100043.00;701032;28;45892;-63
2021/06/21 01:41:40;;;;;;;9.48;8.40;;;;;;;26.94;52.89;100048.53;702343;28;14079;-63
2021/06/21 01:42:05;;;;;;;10.68;8.50;;;;;;;26.93;53.27;100055.19;700950;28;15465;-63
2021/06/21 01:42:28;;;;;;;10.02;8.43;;;;;;;26.92;53.06;100053.53;697598;28;114979;-63
2021/06/21 01:42:54;;;;;;;10.40;8.13;;;;;;;26.93;53.28;100059.91;702476;28;13968;-63
2021/06/21 01:43:17;;;;;;;9.15;8.18;;;;;;;26.90;53.16;100053.03;698870;28;116868;-63
2021/06/21 01:43:41;;;;;;;11.82;8.57;;;;;;;26.90;53.39;100054.97;700481;28;70247;-63
2021/06/21 01:44:04;;;;;;;9.90;8.88;;;;;;;26.88;53.22;100058.06;702205;28;15053;-63
2021/06/21 01:44:26;;;;;;;11.07;8.48;;;;;;;26.89;53.41;100051.38;702028;28;15014;-63
2021/06/21 01:44:54;;;;;;;10.32;8.80;;;;;;;26.90;53.38;100052.22;702776;28;961;-63
2021/06/21 01:45:18;;;;;;;14.48;9.02;;;;;;;26.90;53.62;100055.78;700622;28;61112;-63
2021/06/21 01:45:39;;;;;;;14.52;9.20;;;;;;;26.90;53.10;100054.97;700160;28;67507;-63
2021/06/21 01:46:04;;;;;;;11.38;8.77;;;;;;;26.90;52.99;100061.34;702862;28;839;-63
2021/06/21 01:46:28;;;;;;;12.98;9.07;;;;;;;26.91;53.33;100056.59;698529;28;92141;-63
2021/06/21 01:46:51;;;;;;;9.65;8.63;;;;;;;26.88;53.54;100052.50;699735;28;92254;-63
2021/06/21 01:47:15;;;;;;;10.15;9.00;;;;;;;26.88;53.34;100059.97;700832;28;38681;-63
2021/06/21 01:47:38;;;;;;;9.82;8.70;;;;;;;26.87;53.00;100059.16;701381;28;46475;-63
2021/06/21 01:48:02;;;;;;;10.13;8.53;;;;;;;26.87;53.42;100056.41;702383;28;14842;-63
2021/06/21 01:48:34;;;;;;;10.80;8.38;;;;;;;26.85;53.10;100055.88;700858;28;60410;-63
2021/06/21 01:48:57;;;;;;;9.50;8.30;;;;;;;26.84;53.59;100054.22;697800;28;63783;-63
2021/06/21 01:49:19;;;;;;;9.68;8.68;;;;;;;26.84;53.07;100054.22;698409;28;69151;-62
2021/06/21 01:49:44;;;;;;;10.38;8.57;;;;;;;26.82;53.49;100053.72;698455;28;61540;-63
2021/06/21 01:50:08;;;;;;;11.77;8.88;;;;;;;26.82;53.35;100058.41;697207;28;114780;-63
2021/06/21 01:50:31;;;;;;;10.90;8.57;;;;;;;26.82;53.52;100050.94;700088;28;14916;-63
2021/06/21 01:50:53;;;;;;;11.18;8.82;;;;;;;26.81;53.35;100052.06;701276;28;34281;-63